createdAt,value
2024-03-06T00:01:08.128Z,9.20
2024-03-06T00:03:38.720Z,8.77
2024-03-06T00:06:09.343Z,13.80
2024-03-06T00:08:38.778Z,13.50
2024-03-06T00:11:09.257Z,10.50
2024-03-06T00:13:37.413Z,9.40
2024-03-06T00:16:06.144Z,9.83
2024-03-06T00:18:34.164Z,9.43
2024-03-06T00:21:02.113Z,8.00
2024-03-06T00:23:30.554Z,10.50
2024-03-06T00:26:00.203Z,6.57
2024-03-06T00:28:30.543Z,6.63
2024-03-06T00:30:58.643Z,10.17
2024-03-06T00:33:26.580Z,11.37
2024-03-06T00:35:54.549Z,8.40
2024-03-06T00:38:24.370Z,7.30
2024-03-06T00:40:52.418Z,10.40
2024-03-06T00:43:21.659Z,9.93
2024-03-06T00:45:49.863Z,9.13
2024-03-06T00:48:20.832Z,8.03
2024-03-06T00:50:51.425Z,9.40
2024-03-06T00:53:22.432Z,9.70
2024-03-06T00:55:50.489Z,10.43
2024-03-06T00:58:18.752Z,9.00
2024-03-06T01:00:48.118Z,8.00
2024-03-06T01:03:18.593Z,8.37
2024-03-06T01:05:47.344Z,9.67
2024-03-06T01:08:19.154Z,13.10
2024-03-06T01:10:49.771Z,6.20
2024-03-06T01:13:17.842Z,10.67
2024-03-06T01:15:46.302Z,12.00
2024-03-06T01:18:15.666Z,10.07
2024-03-06T01:20:43.654Z,10.60
2024-03-06T01:23:11.695Z,10.77
2024-03-06T01:25:39.893Z,11.80
2024-03-06T01:28:08.229Z,11.80
2024-03-06T01:30:36.126Z,10.60
2024-03-06T01:33:06.158Z,10.17
2024-03-06T01:35:35.712Z,10.10
2024-03-06T01:38:03.903Z,10.93
2024-03-06T01:40:31.862Z,9.80
2024-03-06T01:43:00.101Z,10.77
2024-03-06T01:45:32.190Z,10.67
2024-03-06T01:48:00.115Z,13.60
2024-03-06T01:50:28.627Z,7.63
2024-03-06T01:52:58.340Z,10.53
2024-03-06T01:55:26.459Z,7.40
2024-03-06T01:57:55.348Z,8.33
2024-03-06T02:00:24.061Z,10.03
2024-03-06T02:02:55.512Z,7.47
2024-03-06T02:05:24.345Z,9.10
2024-03-06T02:07:55.197Z,7.50
2024-03-06T02:10:25.002Z,11.30
2024-03-06T02:12:53.962Z,8.23
2024-03-06T02:15:22.161Z,10.70
2024-03-06T02:17:50.499Z,8.57
2024-03-06T02:20:18.636Z,9.87
2024-03-06T02:22:50.464Z,7.20
2024-03-06T02:25:20.236Z,7.63
2024-03-06T02:27:49.265Z,7.97
2024-03-06T02:30:21.062Z,11.40
2024-03-06T02:32:53.858Z,7.73
2024-03-06T02:35:22.077Z,11.73
2024-03-06T02:37:51.447Z,8.40
2024-03-06T02:40:19.845Z,8.07
2024-03-06T02:42:50.201Z,8.00
2024-03-06T02:45:18.429Z,7.77
2024-03-06T02:47:47.034Z,8.97
2024-03-06T02:50:15.231Z,9.20
2024-03-06T02:52:46.211Z,7.17
2024-03-06T02:55:16.158Z,11.00
2024-03-06T02:57:44.300Z,9.67
2024-03-06T03:00:14.880Z,9.80
2024-03-06T03:02:47.344Z,10.17
2024-03-06T03:05:15.573Z,12.83
2024-03-06T03:07:43.985Z,7.97
2024-03-06T03:10:17.947Z,7.70
2024-03-06T03:12:47.600Z,7.10
2024-03-06T03:15:16.172Z,7.20
2024-03-06T03:17:44.104Z,8.43
2024-03-06T03:20:13.466Z,10.67
2024-03-06T03:22:43.960Z,8.53
2024-03-06T03:25:15.190Z,8.03
2024-03-06T03:27:48.273Z,8.80
2024-03-06T03:30:17.081Z,9.10
2024-03-06T03:32:45.049Z,5.97
2024-03-06T03:35:15.756Z,7.07
2024-03-06T03:37:45.365Z,6.87
2024-03-06T03:40:13.504Z,10.90
2024-03-06T03:42:41.598Z,10.60
2024-03-06T03:45:11.294Z,7.43
2024-03-06T03:47:43.840Z,7.13
2024-03-06T03:50:12.096Z,6.60
2024-03-06T03:52:43.387Z,7.27
2024-03-06T03:55:12.443Z,7.07
2024-03-06T03:57:40.760Z,7.57
2024-03-06T04:00:12.309Z,6.93
2024-03-06T04:02:43.265Z,8.70
2024-03-06T04:05:12.161Z,7.90
2024-03-06T04:07:40.475Z,8.83
2024-03-06T04:10:11.993Z,6.80
2024-03-06T04:12:41.122Z,7.70
2024-03-06T04:15:12.031Z,6.50
2024-03-06T04:17:42.099Z,6.07
2024-03-06T04:20:14.017Z,6.93
2024-03-06T04:22:42.502Z,10.67
2024-03-06T04:25:10.968Z,5.90
2024-03-06T04:27:38.941Z,7.77
2024-03-06T04:30:08.635Z,7.83
2024-03-06T04:32:36.893Z,7.27
2024-03-06T04:35:05.222Z,6.47
2024-03-06T04:37:37.544Z,6.73
2024-03-06T04:40:08.779Z,6.33
2024-03-06T04:42:38.147Z,7.03
2024-03-06T04:45:10.737Z,8.10
2024-03-06T04:47:38.938Z,10.43
2024-03-06T04:50:11.086Z,11.00
2024-03-06T04:52:42.198Z,8.60
2024-03-06T04:55:13.939Z,7.43
2024-03-06T04:57:45.140Z,7.70
2024-03-06T05:00:14.993Z,6.43
2024-03-06T05:58:22.169Z,16.17
2024-03-06T06:00:50.746Z,13.40
2024-03-06T06:03:19.400Z,15.10
2024-03-06T06:05:47.905Z,13.20
2024-03-06T06:08:15.976Z,22.17
2024-03-06T06:10:43.812Z,16.93
2024-03-06T06:13:14.025Z,21.63
2024-03-06T06:15:43.419Z,21.20
2024-03-06T06:18:11.592Z,19.40
2024-03-06T06:20:43.194Z,21.40
2024-03-06T06:23:11.149Z,20.77
2024-03-06T06:25:39.303Z,19.33
2024-03-06T06:28:07.472Z,15.10
2024-03-06T06:30:35.444Z,26.23
2024-03-06T06:33:04.908Z,20.13
2024-03-06T06:35:33.531Z,16.50
2024-03-06T06:38:02.105Z,22.73
2024-03-06T06:40:30.259Z,15.77
2024-03-06T06:43:00.116Z,20.27
2024-03-06T06:45:28.200Z,20.70
2024-03-06T06:47:56.179Z,19.20
2024-03-06T06:50:27.843Z,21.27
2024-03-06T06:52:56.034Z,26.27
2024-03-06T06:55:25.739Z,23.33
2024-03-06T06:57:53.966Z,27.83
2024-03-06T07:00:24.094Z,24.93
2024-03-06T07:02:53.132Z,31.73
2024-03-06T07:05:24.000Z,22.60
2024-03-06T07:07:55.362Z,22.50
2024-03-06T07:10:23.746Z,19.83
2024-03-06T07:12:51.696Z,21.70
2024-03-06T07:15:22.445Z,19.10
2024-03-06T07:17:50.967Z,19.10
2024-03-06T07:20:19.208Z,13.73
2024-03-06T07:22:47.290Z,15.27
2024-03-06T07:25:16.888Z,16.33
2024-03-06T07:27:44.834Z,14.43
2024-03-06T07:30:15.060Z,12.07
2024-03-06T07:32:43.221Z,13.80
2024-03-06T07:35:11.448Z,14.47
2024-03-06T07:37:39.599Z,11.53
2024-03-06T07:40:10.603Z,15.43
2024-03-06T07:42:40.278Z,13.10
2024-03-06T07:45:10.193Z,12.37
2024-03-06T07:47:42.538Z,16.77
2024-03-06T07:50:13.694Z,19.40
2024-03-06T07:52:44.540Z,14.50
2024-03-06T07:55:12.408Z,18.57
2024-03-06T07:57:44.714Z,17.83
2024-03-06T08:00:16.356Z,17.17
2024-03-06T08:02:45.175Z,21.30
2024-03-06T08:05:14.441Z,20.73
2024-03-06T08:07:43.141Z,21.40
2024-03-06T08:10:14.308Z,19.47
2024-03-06T08:12:45.171Z,22.13
2024-03-06T08:15:14.711Z,19.20
2024-03-06T08:17:44.436Z,27.07
2024-03-06T08:20:13.989Z,23.13
2024-03-06T08:22:43.819Z,27.67
2024-03-06T08:25:13.161Z,26.73
2024-03-06T08:27:43.190Z,25.23
2024-03-06T08:30:14.064Z,22.00
2024-03-06T08:32:45.068Z,32.40
2024-03-06T08:35:16.797Z,28.57
2024-03-06T08:37:47.095Z,35.80
2024-03-06T08:40:16.780Z,45.43
2024-03-06T08:42:45.193Z,39.57
2024-03-06T08:45:15.289Z,36.47
2024-03-06T08:47:44.670Z,48.27
2024-03-06T08:50:13.723Z,41.23
2024-03-06T08:52:44.578Z,47.73
2024-03-06T08:55:12.753Z,40.50
2024-03-06T08:57:42.046Z,37.90
2024-03-06T09:00:11.517Z,37.70
2024-03-06T09:02:43.046Z,32.63
2024-03-06T09:05:13.841Z,36.00
2024-03-06T09:07:42.841Z,26.03
2024-03-06T09:10:11.856Z,28.67
2024-03-06T09:12:39.967Z,27.30
2024-03-06T09:15:09.917Z,27.87
2024-03-06T09:17:42.897Z,23.60
2024-03-06T09:20:12.937Z,27.20
2024-03-06T09:22:42.465Z,22.27
2024-03-06T09:25:11.316Z,25.00
2024-03-06T09:27:39.793Z,21.90
2024-03-06T09:30:10.041Z,25.57
2024-03-06T09:32:39.624Z,23.60
2024-03-06T09:35:09.913Z,24.67
2024-03-06T09:37:37.945Z,22.20
2024-03-06T09:40:08.783Z,22.80
2024-03-06T09:42:36.876Z,23.10
2024-03-06T09:45:05.431Z,22.93
2024-03-06T09:47:34.676Z,24.33
2024-03-06T09:50:07.174Z,25.13
2024-03-06T09:52:38.172Z,22.73
2024-03-06T09:55:11.006Z,22.13
2024-03-06T09:57:39.233Z,23.83
2024-03-06T10:00:09.492Z,20.43
2024-03-06T10:02:41.147Z,27.87
2024-03-06T10:05:23.199Z,22.20
2024-03-06T10:07:54.087Z,22.50
2024-03-06T10:10:24.903Z,24.17
2024-03-06T10:12:58.096Z,20.47
2024-03-06T10:15:27.773Z,22.57
2024-03-06T10:18:12.928Z,22.00
2024-03-06T10:20:41.191Z,21.63
2024-03-06T10:23:13.958Z,24.83
2024-03-06T10:25:44.835Z,22.20
2024-03-06T10:28:14.094Z,22.80
2024-03-06T10:30:44.646Z,25.80
2024-03-06T10:33:16.173Z,22.13
2024-03-06T10:35:46.047Z,24.80
2024-03-06T10:38:16.317Z,25.70
2024-03-06T10:40:45.914Z,22.33
2024-03-06T10:43:16.048Z,21.47
2024-03-06T10:45:49.898Z,23.03
2024-03-06T10:48:19.178Z,25.27
2024-03-06T10:50:48.964Z,21.37
2024-03-06T10:53:22.714Z,22.13
2024-03-06T10:55:52.941Z,23.90
2024-03-06T10:58:22.533Z,24.67
2024-03-06T11:00:50.977Z,23.87
2024-03-06T11:03:20.070Z,24.87
2024-03-06T11:05:52.448Z,22.33
2024-03-06T11:08:22.707Z,20.73
2024-03-06T11:10:51.106Z,21.33
2024-03-06T11:13:27.260Z,17.87
2024-03-06T11:15:59.030Z,21.20
2024-03-06T11:18:46.525Z,18.07
2024-03-06T11:21:30.981Z,23.63
2024-03-06T11:24:25.438Z,22.57
2024-03-06T11:27:01.714Z,20.27
2024-03-06T11:29:31.109Z,17.63
2024-03-06T11:32:08.645Z,20.37
2024-03-06T11:34:38.024Z,21.00
2024-03-06T11:37:09.509Z,20.47
2024-03-06T11:39:40.569Z,20.70
2024-03-06T11:42:09.932Z,22.50
2024-03-06T11:44:39.176Z,22.10
2024-03-06T11:47:09.881Z,23.33
2024-03-06T11:49:39.267Z,21.40
2024-03-06T11:52:11.028Z,20.63
2024-03-06T11:54:40.576Z,21.23
2024-03-06T11:57:08.888Z,18.67
2024-03-06T11:59:39.668Z,19.03
2024-03-06T12:02:08.990Z,19.63
2024-03-06T12:04:39.926Z,22.00
2024-03-06T12:07:09.812Z,20.67
2024-03-06T12:09:42.504Z,21.97
2024-03-06T12:12:14.016Z,20.17
2024-03-06T12:14:42.759Z,21.97
2024-03-06T12:17:15.711Z,21.83
2024-03-06T12:19:45.070Z,18.67
2024-03-06T12:22:13.946Z,20.60
2024-03-06T12:24:43.933Z,17.63
2024-03-06T12:27:15.247Z,20.97
2024-03-06T12:29:44.814Z,22.13
2024-03-06T12:32:20.690Z,21.20
2024-03-06T12:35:01.367Z,18.73
2024-03-06T12:37:34.890Z,22.67
2024-03-06T12:40:06.635Z,26.53
2024-03-06T12:42:35.572Z,21.40
2024-03-06T12:45:08.444Z,22.93
2024-03-06T12:47:36.621Z,22.40
2024-03-06T12:50:08.793Z,22.10
2024-03-06T12:52:37.394Z,19.47
2024-03-06T12:55:07.744Z,20.13
2024-03-06T12:57:36.463Z,19.13
2024-03-06T13:00:08.006Z,20.20
2024-03-06T13:02:38.113Z,21.93
2024-03-06T13:05:06.547Z,17.60
2024-03-06T13:07:34.642Z,19.50
2024-03-06T13:10:04.932Z,21.03
2024-03-06T13:12:37.700Z,17.53
2024-03-06T13:15:08.179Z,18.87
2024-03-06T13:17:36.761Z,22.00
2024-03-06T13:20:05.173Z,20.23
2024-03-06T13:22:33.248Z,16.90
2024-03-06T13:25:01.274Z,17.73
2024-03-06T13:27:31.737Z,16.10
2024-03-06T13:30:04.748Z,22.23
2024-03-06T13:32:34.573Z,18.40
2024-03-06T13:35:02.722Z,16.73
2024-03-06T13:37:30.737Z,15.53
2024-03-06T13:40:01.975Z,15.80
2024-03-06T13:42:31.058Z,17.27
2024-03-06T13:45:03.205Z,17.00
2024-03-06T13:47:33.485Z,17.43
2024-03-06T13:50:01.635Z,17.10
2024-03-06T13:52:29.653Z,18.80
2024-03-06T13:54:59.083Z,21.17
2024-03-06T13:57:27.422Z,27.77
2024-03-06T13:59:55.531Z,18.97
2024-03-06T14:02:24.995Z,19.67
2024-03-06T14:04:52.985Z,19.33
2024-03-06T14:07:20.964Z,18.60
2024-03-06T14:09:50.449Z,18.50
2024-03-06T14:12:18.848Z,19.27
2024-03-06T14:14:47.338Z,19.63
2024-03-06T14:17:15.608Z,16.43
2024-03-06T14:19:46.734Z,16.63
2024-03-06T14:22:14.948Z,18.83
2024-03-06T14:24:44.243Z,23.40
2024-03-06T14:27:15.510Z,14.00
2024-03-06T14:29:46.385Z,19.43
2024-03-06T14:32:17.058Z,18.77
2024-03-06T14:34:46.348Z,20.97
2024-03-06T14:37:14.602Z,18.53
2024-03-06T14:39:42.678Z,17.23
2024-03-06T14:42:10.772Z,15.20
2024-03-06T14:44:38.896Z,20.23
2024-03-06T14:47:08.128Z,22.20
2024-03-06T14:49:36.028Z,15.80
2024-03-06T14:52:06.295Z,15.93
2024-03-06T14:54:34.570Z,19.10
2024-03-06T14:57:02.837Z,17.87
2024-03-06T14:59:31.170Z,15.83
2024-03-06T15:01:59.115Z,16.07
2024-03-06T15:04:27.394Z,19.43
2024-03-06T15:07:01.096Z,16.07
2024-03-06T15:09:30.359Z,15.10
2024-03-06T15:12:00.726Z,15.20
2024-03-06T15:14:30.076Z,21.93
2024-03-06T15:17:02.436Z,15.53
2024-03-06T15:19:30.372Z,15.53
2024-03-06T15:22:00.551Z,15.13
2024-03-06T15:24:29.887Z,18.43
2024-03-06T15:26:57.762Z,17.47
2024-03-06T15:29:26.012Z,15.37
2024-03-06T15:31:53.901Z,17.80
2024-03-06T15:34:22.115Z,16.50
2024-03-06T15:36:50.127Z,16.67
2024-03-06T15:39:18.007Z,16.97
2024-03-06T15:41:47.579Z,14.43
2024-03-06T15:44:17.618Z,15.70
2024-03-06T15:46:52.079Z,16.53
2024-03-06T15:49:27.511Z,17.50
2024-03-06T15:51:55.599Z,14.70
2024-03-06T15:54:24.148Z,14.87
2024-03-06T15:56:53.572Z,14.80
2024-03-06T15:59:22.128Z,13.53
2024-03-06T16:01:50.369Z,13.60
2024-03-06T16:04:18.256Z,14.80
2024-03-06T16:06:46.754Z,16.90
2024-03-06T16:09:15.918Z,14.50
2024-03-06T16:11:47.736Z,15.37
2024-03-06T16:14:17.296Z,14.30
2024-03-06T16:16:46.000Z,13.83
2024-03-06T16:19:14.066Z,28.60
2024-03-06T16:21:42.063Z,29.10
2024-03-06T16:24:11.286Z,23.70
2024-03-06T16:26:39.645Z,18.10
2024-03-06T16:29:07.683Z,18.30
2024-03-06T16:31:40.045Z,15.60
2024-03-06T16:34:08.156Z,15.60
2024-03-06T16:36:36.500Z,14.93
2024-03-06T16:39:05.581Z,16.37
2024-03-06T16:41:33.653Z,15.57
2024-03-06T16:44:05.083Z,15.73
2024-03-06T16:46:33.149Z,18.43
2024-03-06T16:49:02.420Z,14.90
2024-03-06T16:51:32.914Z,17.67
2024-03-06T16:54:04.090Z,18.60
2024-03-06T16:56:32.194Z,23.80
2024-03-06T16:59:00.230Z,23.33
2024-03-06T17:01:28.084Z,24.03
2024-03-06T17:03:56.060Z,23.60
2024-03-06T17:06:26.127Z,23.97
2024-03-06T17:08:54.155Z,21.30
2024-03-06T17:11:23.370Z,22.00
2024-03-06T17:13:51.314Z,22.43
2024-03-06T17:16:19.371Z,22.50
2024-03-06T17:18:47.304Z,22.17
2024-03-06T17:21:15.681Z,22.93
2024-03-06T17:23:50.345Z,25.10
2024-03-06T17:26:20.481Z,24.07
2024-03-06T17:28:51.270Z,23.50
2024-03-06T17:31:20.889Z,22.57
2024-03-06T17:33:48.945Z,27.13
2024-03-06T17:36:15.968Z,25.47
2024-03-06T17:38:48.329Z,27.10
2024-03-06T17:41:18.339Z,24.33
2024-03-06T17:43:46.786Z,25.03
2024-03-06T17:46:15.074Z,23.57
2024-03-06T17:48:43.133Z,28.60
2024-03-06T17:51:11.276Z,25.97
2024-03-06T17:53:41.441Z,29.27
2024-03-06T17:56:14.899Z,29.13
2024-03-06T17:58:43.920Z,29.20
2024-03-06T18:01:12.430Z,28.53
2024-03-06T18:03:42.562Z,26.27
2024-03-06T18:06:13.912Z,25.57
2024-03-06T18:08:42.141Z,26.63
2024-03-06T18:11:10.658Z,31.10
2024-03-06T18:13:39.942Z,30.33
2024-03-06T18:16:10.648Z,34.17
2024-03-06T18:18:39.382Z,26.13
2024-03-06T18:21:09.065Z,34.53
2024-03-06T18:23:37.321Z,26.30
2024-03-06T18:26:05.647Z,30.00
2024-03-06T18:28:33.646Z,27.97
2024-03-06T18:31:05.069Z,29.93
2024-03-06T18:33:33.539Z,29.70
2024-03-06T18:36:01.639Z,29.40
2024-03-06T18:38:30.969Z,29.20
2024-03-06T18:40:59.028Z,31.63
2024-03-06T18:43:31.802Z,32.53
2024-03-06T18:45:59.861Z,30.60
2024-03-06T18:48:29.507Z,34.43
2024-03-06T18:50:57.605Z,30.97
2024-03-06T18:53:25.763Z,37.53
2024-03-06T18:55:53.809Z,32.63
2024-03-06T18:58:22.038Z,30.50
2024-03-06T19:00:51.160Z,30.67
2024-03-06T19:03:19.186Z,32.07
2024-03-06T19:05:50.074Z,32.30
2024-03-06T19:08:19.014Z,36.30
2024-03-06T19:10:47.075Z,34.17
2024-03-06T19:13:15.120Z,27.67
2024-03-06T19:15:45.138Z,30.50
2024-03-06T19:18:13.287Z,29.70
2024-03-06T19:20:41.646Z,35.57
2024-03-06T19:23:11.027Z,31.50
2024-03-06T19:25:39.063Z,31.70
2024-03-06T19:28:07.375Z,31.37
2024-03-06T19:30:35.376Z,31.60
2024-03-06T19:33:03.488Z,35.57
2024-03-06T19:35:31.489Z,32.93
2024-03-06T19:37:59.504Z,25.97
2024-03-06T19:40:29.210Z,26.77
2024-03-06T19:42:57.419Z,32.47
2024-03-06T19:45:25.739Z,33.93
2024-03-06T19:47:54.300Z,28.97
2024-03-06T19:50:23.120Z,29.43
2024-03-06T19:52:51.683Z,33.90
2024-03-06T19:55:20.734Z,34.37
2024-03-06T19:57:50.936Z,30.03
2024-03-06T20:00:21.144Z,31.87
2024-03-06T20:02:50.484Z,31.77
2024-03-06T20:05:20.452Z,28.47
2024-03-06T20:07:48.391Z,32.30
2024-03-06T20:10:20.694Z,35.30
2024-03-06T20:12:50.784Z,32.20
2024-03-06T20:15:19.431Z,40.77
2024-03-06T20:17:47.622Z,30.80
2024-03-06T20:20:15.987Z,37.20
2024-03-06T20:22:47.520Z,36.50
2024-03-06T20:25:15.642Z,38.10
2024-03-06T20:27:43.579Z,31.70
2024-03-06T20:30:13.233Z,34.27
2024-03-06T20:32:44.408Z,37.30
2024-03-06T20:35:15.232Z,34.37
2024-03-06T20:37:43.509Z,32.00
2024-03-06T20:40:13.363Z,28.90
2024-03-06T20:42:41.822Z,32.27
2024-03-06T20:45:11.807Z,29.93
2024-03-06T20:47:42.673Z,29.80
2024-03-06T20:50:13.935Z,32.27
2024-03-06T20:52:42.112Z,48.23
2024-03-06T20:55:10.861Z,42.23
2024-03-06T20:57:38.844Z,34.10
2024-03-06T21:00:12.743Z,34.90
2024-03-06T21:02:42.427Z,32.60
2024-03-06T21:05:11.364Z,28.60
2024-03-06T21:07:39.522Z,31.73
2024-03-06T21:10:15.837Z,38.70
2024-03-06T21:12:48.354Z,33.67
2024-03-06T21:15:16.831Z,30.10
2024-03-06T21:17:46.459Z,28.70
2024-03-06T21:20:15.065Z,33.77
2024-03-06T21:22:43.486Z,32.27
2024-03-06T21:25:14.004Z,27.87
2024-03-06T21:27:42.266Z,30.90
2024-03-06T21:30:12.500Z,28.40
2024-03-06T21:32:41.319Z,31.70
2024-03-06T21:35:11.272Z,27.40
2024-03-06T21:37:39.653Z,37.23
2024-03-06T21:40:09.686Z,30.87
2024-03-06T21:42:37.684Z,26.43
2024-03-06T21:45:06.336Z,28.97
2024-03-06T21:47:36.960Z,30.53
2024-03-06T21:50:07.088Z,29.83
2024-03-06T21:52:36.856Z,28.50
2024-03-06T21:55:05.227Z,26.50
2024-03-06T21:57:33.324Z,31.30
2024-03-06T22:00:01.603Z,27.47
2024-03-06T22:02:29.859Z,29.80
2024-03-06T22:04:58.030Z,28.93
2024-03-06T22:07:26.151Z,31.67
2024-03-06T22:09:57.280Z,29.20
2024-03-06T22:12:26.061Z,34.03
2024-03-06T22:14:56.267Z,28.80
2024-03-06T22:17:24.597Z,33.07
2024-03-06T22:19:52.654Z,28.20
2024-03-06T22:22:20.573Z,29.10
2024-03-06T22:24:53.376Z,32.87
2024-03-06T22:27:22.720Z,32.77
2024-03-06T22:29:53.092Z,25.27
2024-03-06T22:32:21.035Z,28.03
2024-03-06T22:34:49.145Z,28.17
2024-03-06T22:37:19.078Z,30.03
2024-03-06T22:39:49.311Z,28.47
2024-03-06T22:42:17.392Z,29.53
2024-03-06T22:44:46.867Z,33.77
2024-03-06T22:47:15.046Z,31.10
2024-03-06T22:49:43.029Z,32.80
2024-03-06T22:52:11.186Z,29.80
2024-03-06T22:54:39.181Z,29.63
2024-03-06T22:57:07.576Z,27.20
2024-03-06T22:59:35.545Z,27.67
2024-03-06T23:02:05.395Z,30.17
2024-03-06T23:04:33.606Z,30.73
2024-03-06T23:07:01.600Z,30.43
2024-03-06T23:09:29.642Z,28.47
2024-03-06T23:11:59.048Z,30.03
2024-03-06T23:14:29.704Z,31.30
2024-03-06T23:16:58.576Z,33.60
2024-03-06T23:19:27.940Z,33.93
2024-03-06T23:21:57.987Z,30.90
2024-03-06T23:24:26.853Z,28.97
2024-03-06T23:26:54.937Z,29.90
2024-03-06T23:29:23.193Z,31.00
2024-03-06T23:31:51.402Z,28.43
2024-03-06T23:34:19.360Z,26.20
2024-03-06T23:36:48.746Z,33.27
2024-03-06T23:39:17.619Z,28.07
2024-03-06T23:41:46.007Z,29.63
2024-03-06T23:44:14.153Z,35.50
2024-03-06T23:46:45.188Z,30.90
2024-03-06T23:49:15.548Z,29.10
2024-03-06T23:51:46.221Z,30.30
2024-03-06T23:54:20.014Z,27.30
2024-03-06T23:56:48.355Z,27.23
2024-03-06T23:59:16.473Z,36.40
